Time;durP1;ratioP1;P1;durP2;ratioP2;P2;SDS_P1;SDS_P2;PMS_P1;PMS_P2;Temp;Humidity;BMP_temperature;BMP_pressure;BME280_temperature;BME280_humidity;BME280_pressure;Samples;Min_cycle;Max_cycle;Signal;HPM_P1;HPM_P2
2022/05/10 00:00:07;;;;;;;12.63;6.78;;;;;;;;;;4970008;28;20040;-65
2022/05/10 00:02:40;;;;;;;14.63;6.47;;;;;;;;;;4970175;28;20039;-65
2022/05/10 00:05:07;;;;;;;8.98;5.82;;;;;;;;;;4972737;28;20062;-65
2022/05/10 00:07:35;;;;;;;11.35;6.90;;;;;;;;;;4989606;28;20062;-65
2022/05/10 00:10:03;;;;;;;12.93;6.50;;;;;;;;;;4989142;28;20118;-65
2022/05/10 00:12:29;;;;;;;12.30;7.15;;;;;;;;;;4989627;28;20407;-65
2022/05/10 00:14:55;;;;;;;11.18;7.15;;;;;;;;;;4989330;28;20369;-65
2022/05/10 00:17:24;;;;;;;12.00;7.28;;;;;;;;;;4983687;28;20068;-65
2022/05/10 00:19:50;;;;;;;13.77;7.30;;;;;;;;;;4989426;28;20038;-65
2022/05/10 00:22:16;;;;;;;14.27;7.65;;;;;;;;;;4975600;28;20027;-65
2022/05/10 00:24:42;;;;;;;11.00;6.60;;;;;;;;;;4970047;28;20392;-65
2022/05/10 00:27:08;;;;;;;12.02;7.50;;;;;;;;;;4969920;28;20033;-65
2022/05/10 00:29:36;;;;;;;12.77;7.53;;;;;;;;;;4969594;28;20097;-65
2022/05/10 00:32:02;;;;;;;14.10;8.50;;;;;;;;;;4969676;28;20038;-65
2022/05/10 00:34:29;;;;;;;17.10;8.80;;;;;;;;;;4969940;28;20035;-65
2022/05/10 00:36:55;;;;;;;12.10;7.80;;;;;;;;;;4972718;28;20475;-65
2022/05/10 00:39:22;;;;;;;13.88;7.78;;;;;;;;;;4989242;28;20034;-65
2022/05/10 00:42:09;;;;;;;14.35;7.07;;;;;;;;;;4989169;28;20026;-65
2022/05/10 00:44:38;;;;;;;13.57;6.80;;;;;;;;;;5069001;28;20128;-65
2022/05/10 00:47:04;;;;;;;12.85;7.57;;;;;;;;;;5069075;28;20076;-65
2022/05/10 00:49:33;;;;;;;13.50;7.45;;;;;;;;;;5069418;28;20189;-65
2022/05/10 00:52:03;;;;;;;17.38;8.50;;;;;;;;;;5068884;28;20036;-65
2022/05/10 00:54:32;;;;;;;14.05;7.32;;;;;;;;;;5070708;28;20074;-65
2022/05/10 00:57:06;;;;;;;17.17;7.63;;;;;;;;;;5072041;28;20048;-65
2022/05/10 00:59:40;;;;;;;15.27;7.57;;;;;;;;;;5072728;28;20239;-65
2022/05/10 01:02:11;;;;;;;13.07;8.90;;;;;;;;;;5072155;28;20071;-65
2022/05/10 01:04:40;;;;;;;16.23;7.60;;;;;;;;;;5072603;28;20551;-64
2022/05/10 01:07:14;;;;;;;14.55;7.95;;;;;;;;;;5072401;28;20439;-65
2022/05/10 01:09:51;;;;;;;15.27;7.38;;;;;;;;;;5064169;28;20542;-65
2022/05/10 01:12:30;;;;;;;16.45;7.97;;;;;;;;;;5052210;28;20044;-65
2022/05/10 01:15:02;;;;;;;12.43;7.50;;;;;;;;;;5051994;28;20056;-65
2022/05/10 01:17:28;;;;;;;12.60;6.43;;;;;;;;;;5058380;28;20040;-65
2022/05/10 01:19:54;;;;;;;14.27;7.13;;;;;;;;;;5072110;28;20860;-65
2022/05/10 01:22:20;;;;;;;13.38;7.50;;;;;;;;;;4993324;28;20050;-65
2022/05/10 01:25:00;;;;;;;10.27;5.88;;;;;;;;;;4977951;28;20397;-65
2022/05/10 01:27:29;;;;;;;13.57;7.00;;;;;;;;;;4991502;28;20027;-65
2022/05/10 01:29:55;;;;;;;9.18;5.88;;;;;;;;;;4991771;28;20438;-65
2022/05/10 01:35:15;;;;;;;9.23;5.72;;;;;;;;;;4972205;28;20045;-65
2022/05/10 01:37:44;;;;;;;10.93;5.43;;;;;;;;;;4972478;28;20027;-65
2022/05/10 01:40:17;;;;;;;9.48;5.63;;;;;;;;;;4972133;28;20033;-65
2022/05/10 01:42:58;;;;;;;8.80;5.53;;;;;;;;;;4971970;28;20396;-65
2022/05/10 01:45:30;;;;;;;8.38;5.38;;;;;;;;;;4972287;28;20493;-65
2022/05/10 01:47:58;;;;;;;9.68;5.15;;;;;;;;;;4971928;28;20046;-65
2022/05/10 01:50:37;;;;;;;8.13;4.57;;;;;;;;;;4972175;28;20027;-65
2022/05/10 01:53:17;;;;;;;9.23;5.10;;;;;;;;;;4971910;28;20492;-65
2022/05/10 01:55:43;;;;;;;7.30;4.18;;;;;;;;;;4971852;28;20034;-65
2022/05/10 01:58:11;;;;;;;7.47;4.50;;;;;;;;;;4974624;28;20025;-65
2022/05/10 02:00:39;;;;;;;11.18;4.88;;;;;;;;;;4991362;28;20054;-65
2022/05/10 02:03:10;;;;;;;6.28;4.28;;;;;;;;;;4991126;28;20075;-65
2022/05/10 02:05:49;;;;;;;7.20;3.42;;;;;;;;;;4990209;28;20046;-65
2022/05/10 02:08:19;;;;;;;10.13;3.78;;;;;;;;;;4991069;28;20117;-65
2022/05/10 02:10:47;;;;;;;9.60;3.08;;;;;;;;;;4990812;28;20050;-65
2022/05/10 02:13:15;;;;;;;5.50;3.03;;;;;;;;;;4990964;28;20059;-65
2022/05/10 02:15:41;;;;;;;5.13;3.40;;;;;;;;;;4982336;28;20085;-65
2022/05/10 02:18:23;;;;;;;7.50;3.20;;;;;;;;;;4982385;28;20076;-65
2022/05/10 02:21:07;;;;;;;5.60;3.08;;;;;;;;;;4991182;28;20476;-65
2022/05/10 02:23:43;;;;;;;4.18;2.80;;;;;;;;;;4989661;28;20030;-65
2022/05/10 02:26:15;;;;;;;6.00;3.25;;;;;;;;;;4990464;28;20030;-65
2022/05/10 02:28:47;;;;;;;7.15;3.13;;;;;;;;;;4976062;28;20037;-65
2022/05/10 02:31:20;;;;;;;6.57;2.83;;;;;;;;;;4971218;28;20027;-65
2022/05/10 02:33:47;;;;;;;5.30;2.70;;;;;;;;;;4971572;28;20439;-65
2022/05/10 02:36:14;;;;;;;3.53;2.30;;;;;;;;;;4975728;28;20372;-65
2022/05/10 02:38:41;;;;;;;6.30;2.97;;;;;;;;;;4974551;28;20483;-65
2022/05/10 02:41:10;;;;;;;6.25;2.80;;;;;;;;;;4970032;28;20419;-65
2022/05/10 02:43:43;;;;;;;5.10;3.08;;;;;;;;;;4971419;28;20477;-65
2022/05/10 02:46:12;;;;;;;3.67;2.60;;;;;;;;;;4971048;28;20031;-65
2022/05/10 02:48:38;;;;;;;2.75;2.00;;;;;;;;;;4971315;28;20030;-65
2022/05/10 02:51:04;;;;;;;4.15;2.63;;;;;;;;;;4971109;28;20035;-65
2022/05/10 02:53:30;;;;;;;3.90;2.25;;;;;;;;;;4986284;28;20035;-65
2022/05/10 02:56:01;;;;;;;3.30;2.13;;;;;;;;;;4990435;28;20034;-65
2022/05/10 02:58:27;;;;;;;3.80;2.42;;;;;;;;;;4990658;28;20137;-65
2022/05/10 03:00:57;;;;;;;4.93;2.40;;;;;;;;;;4990600;28;20023;-65
2022/05/10 03:03:27;;;;;;;4.55;2.40;;;;;;;;;;4990365;28;20066;-65
2022/05/10 03:05:54;;;;;;;4.70;2.70;;;;;;;;;;4990324;28;20470;-65
2022/05/10 03:08:21;;;;;;;3.65;1.90;;;;;;;;;;4974306;28;20027;-65
2022/05/10 03:10:47;;;;;;;5.30;2.08;;;;;;;;;;4970832;28;20126;-65
2022/05/10 03:13:13;;;;;;;5.93;2.08;;;;;;;;;;4970849;28;20039;-65
2022/05/10 03:15:40;;;;;;;3.58;2.22;;;;;;;;;;4970944;28;20037;-65
2022/05/10 03:18:06;;;;;;;4.30;2.10;;;;;;;;;;4981284;28;20487;-65
2022/05/10 03:20:32;;;;;;;5.07;2.08;;;;;;;;;;4990203;28;20531;-65
2022/05/10 03:22:59;;;;;;;2.95;1.95;;;;;;;;;;4975737;28;20531;-65
2022/05/10 03:25:25;;;;;;;6.15;2.20;;;;;;;;;;4970652;28;20026;-65
2022/05/10 03:27:51;;;;;;;4.60;2.05;;;;;;;;;;4970868;28;20034;-65
2022/05/10 03:30:18;;;;;;;6.70;2.55;;;;;;;;;;4970387;28;20038;-65
2022/05/10 03:32:44;;;;;;;4.68;2.67;;;;;;;;;;4970746;28;20045;-65
2022/05/10 03:35:12;;;;;;;4.65;2.35;;;;;;;;;;4969317;28;20462;-65
2022/05/10 03:37:38;;;;;;;2.92;2.05;;;;;;;;;;4978101;28;20077;-65
2022/05/10 03:40:04;;;;;;;3.08;1.73;;;;;;;;;;4989688;28;20034;-65
2022/05/10 03:42:30;;;;;;;2.83;1.90;;;;;;;;;;4989929;28;20031;-65
2022/05/10 03:44:56;;;;;;;5.65;3.03;;;;;;;;;;4989898;28;20038;-65
2022/05/10 03:47:26;;;;;;;3.22;2.40;;;;;;;;;;4989467;28;20030;-65
2022/05/10 03:49:53;;;;;;;6.88;2.70;;;;;;;;;;4989981;28;20369;-65
2022/05/10 03:52:19;;;;;;;6.15;3.00;;;;;;;;;;4978307;28;20027;-65
2022/05/10 03:54:47;;;;;;;4.70;2.85;;;;;;;;;;4970473;28;20484;-65
2022/05/10 03:57:13;;;;;;;8.13;3.58;;;;;;;;;;4982472;28;20026;-65
2022/05/10 03:59:41;;;;;;;4.93;2.83;;;;;;;;;;4989879;28;20034;-65
2022/05/10 04:02:11;;;;;;;4.75;2.80;;;;;;;;;;4989598;28;20113;-65
2022/05/10 04:04:38;;;;;;;3.97;2.70;;;;;;;;;;4989553;28;20039;-65
2022/05/10 04:07:04;;;;;;;5.57;2.95;;;;;;;;;;4987100;28;20022;-65
2022/05/10 04:09:30;;;;;;;5.68;3.20;;;;;;;;;;4969974;28;20058;-65
2022/05/10 04:11:57;;;;;;;5.38;3.13;;;;;;;;;;4970065;28;20057;-65
2022/05/10 04:14:24;;;;;;;5.55;3.00;;;;;;;;;;4969917;28;20117;-65
2022/05/10 04:16:50;;;;;;;8.95;2.67;;;;;;;;;;4970904;28;20027;-65
2022/05/10 04:19:16;;;;;;;9.48;3.63;;;;;;;;;;4989329;28;20030;-65
2022/05/10 04:21:42;;;;;;;6.50;3.38;;;;;;;;;;4989145;28;20030;-65
2022/05/10 04:24:08;;;;;;;6.55;3.60;;;;;;;;;;4980037;28;20031;-65
2022/05/10 04:26:34;;;;;;;5.75;3.22;;;;;;;;;;4969746;28;20022;-65
2022/05/10 04:29:03;;;;;;;5.60;3.83;;;;;;;;;;4972082;28;20030;-65
2022/05/10 04:31:31;;;;;;;6.50;3.53;;;;;;;;;;4973275;28;20088;-65
2022/05/10 04:33:57;;;;;;;7.93;3.83;;;;;;;;;;4987296;28;20026;-65
2022/05/10 04:36:25;;;;;;;5.13;3.40;;;;;;;;;;4975634;28;20035;-65
2022/05/10 04:38:51;;;;;;;10.27;4.47;;;;;;;;;;4988298;28;20038;-65
2022/05/10 04:41:26;;;;;;;8.43;3.70;;;;;;;;;;4979593;28;20022;-65
2022/05/10 04:43:53;;;;;;;6.47;3.25;;;;;;;;;;4981605;28;20023;-65
2022/05/10 04:46:19;;;;;;;6.80;3.90;;;;;;;;;;4979745;28;20086;-65
2022/05/10 04:48:46;;;;;;;7.63;3.55;;;;;;;;;;4979483;28;20030;-65
2022/05/10 04:51:13;;;;;;;10.27;3.55;;;;;;;;;;4990322;28;20438;-65
2022/05/10 04:53:39;;;;;;;5.93;3.22;;;;;;;;;;4985523;28;20027;-65
2022/05/10 04:56:05;;;;;;;6.20;3.20;;;;;;;;;;4974544;28;20042;-65
2022/05/10 04:58:31;;;;;;;7.85;3.53;;;;;;;;;;4971960;28;20062;-66
2022/05/10 05:01:02;;;;;;;5.05;3.20;;;;;;;;;;4975356;28;20027;-65
2022/05/10 05:03:28;;;;;;;8.95;3.53;;;;;;;;;;4996040;28;20023;-65
2022/05/10 05:05:54;;;;;;;6.68;3.50;;;;;;;;;;5021905;28;20035;-65
2022/05/10 05:08:20;;;;;;;7.70;3.45;;;;;;;;;;4987952;28;20031;-65
2022/05/10 05:10:46;;;;;;;5.10;3.15;;;;;;;;;;4984756;28;20042;-65
2022/05/10 05:13:14;;;;;;;6.10;3.22;;;;;;;;;;4972408;28;20023;-65
2022/05/10 05:15:40;;;;;;;6.47;3.58;;;;;;;;;;4973738;28;20022;-65
2022/05/10 05:18:08;;;;;;;7.43;2.65;;;;;;;;;;5024596;28;20024;-65
2022/05/10 05:20:35;;;;;;;5.90;2.75;;;;;;;;;;4977707;28;20027;-65
2022/05/10 05:23:02;;;;;;;8.85;3.42;;;;;;;;;;4998070;28;20026;-65
2022/05/10 05:25:28;;;;;;;5.57;3.17;;;;;;;;;;4982034;28;20500;-65
2022/05/10 05:27:54;;;;;;;6.05;3.13;;;;;;;;;;4990132;28;20495;-65
2022/05/10 05:30:20;;;;;;;6.95;3.25;;;;;;;;;;4991861;28;20030;-66
2022/05/10 05:32:47;;;;;;;5.20;3.03;;;;;;;;;;4989424;28;20034;-66
2022/05/10 05:35:13;;;;;;;6.30;3.10;;;;;;;;;;4978951;28;20022;-68
2022/05/10 05:37:39;;;;;;;6.47;3.17;;;;;;;;;;4989451;28;20034;-65
2022/05/10 05:40:13;;;;;;;6.22;3.30;;;;;;;;;;4991316;28;20030;-65
2022/05/10 05:42:40;;;;;;;10.85;4.30;;;;;;;;;;4990605;28;20510;-65
2022/05/10 05:45:07;;;;;;;7.93;4.63;;;;;;;;;;4975194;28;20050;-65
2022/05/10 05:47:33;;;;;;;13.65;4.88;;;;;;;;;;4970910;28;20061;-65
2022/05/10 05:50:04;;;;;;;12.63;6.13;;;;;;;;;;4971455;28;20270;-65
2022/05/10 05:52:30;;;;;;;17.08;8.00;;;;;;;;;;4971353;28;20054;-65
2022/05/10 05:54:56;;;;;;;15.30;8.02;;;;;;;;;;4970249;28;20110;-65
2022/05/10 05:57:22;;;;;;;16.67;8.48;;;;;;;;;;4988410;28;20048;-65
2022/05/10 05:59:48;;;;;;;17.95;8.55;;;;;;;;;;4990801;28;20487;-65
2022/05/10 06:02:19;;;;;;;15.25;9.38;;;;;;;;;;4972235;28;20034;-65
2022/05/10 06:04:45;;;;;;;17.70;8.55;;;;;;;;;;4971095;28;20027;-65
2022/05/10 06:07:12;;;;;;;15.82;8.85;;;;;;;;;;4971241;28;20026;-65
2022/05/10 06:09:39;;;;;;;17.15;10.02;;;;;;;;;;4970785;28;20059;-65
2022/05/10 06:12:06;;;;;;;16.52;11.07;;;;;;;;;;4970997;28;20081;-65
2022/05/10 06:14:34;;;;;;;15.98;10.25;;;;;;;;;;4970978;28;20034;-65
2022/05/10 06:17:01;;;;;;;17.48;9.85;;;;;;;;;;4970780;28;20114;-65
2022/05/10 06:19:27;;;;;;;16.98;10.45;;;;;;;;;;4970878;28;20058;-65
2022/05/10 06:21:55;;;;;;;22.23;10.50;;;;;;;;;;4970890;28;20027;-65
2022/05/10 06:24:21;;;;;;;18.88;10.02;;;;;;;;;;4970972;28;20035;-65
2022/05/10 06:26:47;;;;;;;17.55;10.25;;;;;;;;;;4970690;28;20437;-65
2022/05/10 06:29:14;;;;;;;18.70;10.85;;;;;;;;;;4971088;28;20405;-65
2022/05/10 06:31:41;;;;;;;23.30;10.18;;;;;;;;;;4970840;28;20534;-65
2022/05/10 06:34:09;;;;;;;18.02;10.25;;;;;;;;;;4975479;28;20070;-65
2022/05/10 06:36:35;;;;;;;19.77;10.05;;;;;;;;;;4974875;28;20035;-65
2022/05/10 06:39:02;;;;;;;22.65;10.43;;;;;;;;;;4988143;28;20034;-65
2022/05/10 06:41:31;;;;;;;19.42;11.07;;;;;;;;;;4976178;28;20109;-65
2022/05/10 06:43:57;;;;;;;20.90;11.80;;;;;;;;;;4987984;28;20039;-65
2022/05/10 06:46:25;;;;;;;20.27;11.52;;;;;;;;;;4982359;28;20400;-65
2022/05/10 06:48:52;;;;;;;19.27;10.45;;;;;;;;;;4987932;28;20472;-65
2022/05/10 06:51:19;;;;;;;18.08;10.60;;;;;;;;;;4987489;28;20018;-65
2022/05/10 06:53:45;;;;;;;18.52;10.07;;;;;;;;;;4989194;28;20038;-65
2022/05/10 06:56:11;;;;;;;17.55;10.70;;;;;;;;;;4985914;28;20034;-71
2022/05/10 06:58:38;;;;;;;18.77;10.50;;;;;;;;;;4975623;28;20035;-66
2022/05/10 07:01:10;;;;;;;18.55;9.93;;;;;;;;;;4973758;28;20408;-66
2022/05/10 07:03:36;;;;;;;18.38;10.55;;;;;;;;;;4971117;28;20038;-66
2022/05/10 07:06:04;;;;;;;16.10;9.93;;;;;;;;;;4969708;28;20500;-66
2022/05/10 07:08:31;;;;;;;18.92;10.15;;;;;;;;;;4969549;28;20123;-66
2022/05/10 07:10:58;;;;;;;18.17;9.73;;;;;;;;;;4985249;28;20038;-65
2022/05/10 07:13:25;;;;;;;14.73;8.68;;;;;;;;;;4989639;28;20022;-66
2022/05/10 07:15:51;;;;;;;21.10;9.30;;;;;;;;;;4971590;28;20027;-65
2022/05/10 07:18:18;;;;;;;14.07;8.05;;;;;;;;;;4973991;28;20108;-65
2022/05/10 07:20:45;;;;;;;17.67;9.55;;;;;;;;;;4989617;28;20151;-65
2022/05/10 07:23:11;;;;;;;18.83;9.15;;;;;;;;;;4971151;28;20033;-65
2022/05/10 07:25:38;;;;;;;19.90;9.20;;;;;;;;;;4971927;28;20109;-65
2022/05/10 07:28:08;;;;;;;16.85;9.05;;;;;;;;;;4990027;28;20022;-65
2022/05/10 07:30:34;;;;;;;18.27;8.63;;;;;;;;;;4989761;28;20027;-65
2022/05/10 07:33:01;;;;;;;18.63;9.20;;;;;;;;;;4989971;28;20079;-65
2022/05/10 07:38:14;;;;;;;15.95;8.20;;;;;;;;;;4990214;28;20034;-65
2022/05/10 07:40:42;;;;;;;12.07;7.95;;;;;;;;;;4989673;28;20050;-65
2022/05/10 07:43:15;;;;;;;17.25;8.25;;;;;;;;;;4989861;28;20034;-65
2022/05/10 07:45:42;;;;;;;13.60;8.38;;;;;;;;;;4989903;28;20433;-65
2022/05/10 07:48:09;;;;;;;11.43;6.55;;;;;;;;;;4989762;28;20023;-65
2022/05/10 07:50:35;;;;;;;15.68;7.93;;;;;;;;;;4989909;28;20022;-65
2022/05/10 07:53:06;;;;;;;14.05;7.28;;;;;;;;;;4989722;28;20545;-65
2022/05/10 07:55:36;;;;;;;11.15;7.03;;;;;;;;;;4989863;28;20042;-65
2022/05/10 07:58:04;;;;;;;11.85;5.90;;;;;;;;;;4989204;28;20049;-65
2022/05/10 08:00:31;;;;;;;10.10;6.25;;;;;;;;;;4989791;28;20038;-65
2022/05/10 08:02:57;;;;;;;11.68;6.55;;;;;;;;;;4990639;28;20113;-65
2022/05/10 08:05:24;;;;;;;10.75;5.88;;;;;;;;;;4993259;28;20057;-65
2022/05/10 08:07:51;;;;;;;10.52;5.68;;;;;;;;;;4993127;28;20019;-65
2022/05/10 08:10:18;;;;;;;8.55;5.10;;;;;;;;;;4993044;28;20477;-65
2022/05/10 08:12:44;;;;;;;7.97;5.63;;;;;;;;;;4992637;28;20036;-65
2022/05/10 08:15:13;;;;;;;13.18;6.35;;;;;;;;;;4993237;28;20381;-65
2022/05/10 08:17:40;;;;;;;10.07;5.07;;;;;;;;;;4993009;28;20506;-65
2022/05/10 08:20:07;;;;;;;12.85;5.25;;;;;;;;;;4993037;28;20026;-65
2022/05/10 08:22:33;;;;;;;11.25;5.47;;;;;;;;;;4993117;28;20109;-65
2022/05/10 08:24:59;;;;;;;11.15;5.85;;;;;;;;;;4992616;28;20037;-65
2022/05/10 08:27:26;;;;;;;16.48;6.25;;;;;;;;;;4992545;28;20105;-65
2022/05/10 08:29:52;;;;;;;13.55;6.50;;;;;;;;;;4992806;28;20484;-65
2022/05/10 08:32:18;;;;;;;10.52;5.50;;;;;;;;;;4992999;28;20030;-65
2022/05/10 08:34:44;;;;;;;13.00;5.47;;;;;;;;;;4992716;28;20113;-65
2022/05/10 08:37:10;;;;;;;9.93;5.80;;;;;;;;;;4992759;28;20141;-65
2022/05/10 08:39:36;;;;;;;12.85;5.72;;;;;;;;;;4992702;28;20034;-65
2022/05/10 08:42:05;;;;;;;10.27;5.78;;;;;;;;;;4992098;28;20034;-65
2022/05/10 08:44:35;;;;;;;13.65;6.35;;;;;;;;;;4992871;28;20034;-65
2022/05/10 08:47:10;;;;;;;11.90;6.47;;;;;;;;;;4992258;28;20424;-65
2022/05/10 08:49:36;;;;;;;12.10;6.13;;;;;;;;;;4992683;28;20543;-65
2022/05/10 08:52:06;;;;;;;12.73;5.63;;;;;;;;;;4992435;28;20022;-65
2022/05/10 08:54:35;;;;;;;12.48;6.10;;;;;;;;;;4992515;28;20042;-65
2022/05/10 08:57:04;;;;;;;10.25;5.45;;;;;;;;;;4992007;28;20088;-65
2022/05/10 08:59:38;;;;;;;14.73;5.50;;;;;;;;;;4992350;28;20045;-65
2022/05/10 09:02:17;;;;;;;12.32;5.20;;;;;;;;;;4992013;28;20095;-65
2022/05/10 09:05:00;;;;;;;11.32;5.53;;;;;;;;;;4992395;28;20026;-65
2022/05/10 09:07:35;;;;;;;8.15;4.90;;;;;;;;;;4992364;28;20026;-66
2022/05/10 09:10:13;;;;;;;12.65;5.15;;;;;;;;;;4991625;28;20522;-65
2022/05/10 09:12:48;;;;;;;8.80;5.20;;;;;;;;;;4992107;28;20065;-65
2022/05/10 09:15:17;;;;;;;7.45;4.47;;;;;;;;;;4991481;28;20030;-65
2022/05/10 09:17:44;;;;;;;10.10;4.30;;;;;;;;;;4992040;28;20027;-65
2022/05/10 09:20:11;;;;;;;6.68;3.08;;;;;;;;;;4991902;28;20065;-65
2022/05/10 09:22:52;;;;;;;5.80;2.90;;;;;;;;;;4991900;28;20030;-65
2022/05/10 09:25:39;;;;;;;11.20;2.90;;;;;;;;;;4991690;28;20034;-65
2022/05/10 09:28:21;;;;;;;5.63;2.28;;;;;;;;;;4991764;28;20039;-65
2022/05/10 09:36:24;;;;;;;6.28;2.00;;;;;;;;;;4991885;28;20095;-65
2022/05/10 09:38:51;;;;;;;9.65;2.22;;;;;;;;;;4991718;28;20027;-65
2022/05/10 09:41:46;;;;;;;6.15;2.03;;;;;;;;;;4991227;28;20072;-65
2022/05/10 09:44:21;;;;;;;3.67;1.90;;;;;;;;;;5008208;28;20514;-65
2022/05/10 09:46:47;;;;;;;4.88;1.58;;;;;;;;;;4991521;28;20030;-65
2022/05/10 09:49:34;;;;;;;8.60;2.17;;;;;;;;;;4991588;28;20018;-65
2022/05/10 09:52:00;;;;;;;12.75;2.22;;;;;;;;;;4991474;28;20125;-65
2022/05/10 09:54:33;;;;;;;2.88;1.63;;;;;;;;;;4991488;28;20064;-65
2022/05/10 09:56:59;;;;;;;4.75;2.25;;;;;;;;;;4991349;28;20045;-65
2022/05/10 09:59:45;;;;;;;5.18;1.70;;;;;;;;;;4991461;28;20073;-65
2022/05/10 10:02:11;;;;;;;4.05;1.50;;;;;;;;;;4990994;28;20078;-65
2022/05/10 10:04:40;;;;;;;3.30;1.60;;;;;;;;;;4991650;28;20031;-65
2022/05/10 10:07:09;;;;;;;4.00;1.85;;;;;;;;;;4991084;28;20560;-65
2022/05/10 10:09:39;;;;;;;6.22;1.98;;;;;;;;;;4990827;28;20050;-65
2022/05/10 10:12:12;;;;;;;6.90;1.88;;;;;;;;;;4991009;28;20075;-65
2022/05/10 10:14:38;;;;;;;;;;;;;;;;;;4991819;28;20071;-65
2022/05/10 10:17:05;;;;;;;4.63;1.95;;;;;;;;;;4991161;28;19913;-65
2022/05/10 10:19:31;;;;;;;8.10;2.25;;;;;;;;;;4990934;28;20072;-65
2022/05/10 10:22:05;;;;;;;5.43;1.48;;;;;;;;;;4990950;28;20033;-65
2022/05/10 10:24:54;;;;;;;4.43;1.42;;;;;;;;;;4990862;28;20037;-65
2022/05/10 10:27:29;;;;;;;6.90;2.20;;;;;;;;;;4989788;28;20026;-65
2022/05/10 10:29:58;;;;;;;10.80;2.15;;;;;;;;;;4990854;28;20030;-65
2022/05/10 10:32:24;;;;;;;8.13;2.60;;;;;;;;;;4991082;28;20056;-66
2022/05/10 10:34:57;;;;;;;6.72;2.40;;;;;;;;;;4991106;28;20023;-65
2022/05/10 10:37:28;;;;;;;13.23;2.75;;;;;;;;;;4990553;28;20053;-65
2022/05/10 10:39:57;;;;;;;6.68;2.40;;;;;;;;;;4990638;28;20511;-65
2022/05/10 10:42:32;;;;;;;5.10;2.03;;;;;;;;;;4990803;28;20031;-65
2022/05/10 10:45:00;;;;;;;9.15;1.95;;;;;;;;;;4990824;28;20441;-65
2022/05/10 10:47:35;;;;;;;4.30;1.90;;;;;;;;;;4990726;28;20062;-65
2022/05/10 10:50:19;;;;;;;5.03;1.60;;;;;;;;;;4990568;28;20453;-65
2022/05/10 10:52:45;;;;;;;7.30;2.15;;;;;;;;;;4990539;28;20030;-65
2022/05/10 10:55:11;;;;;;;6.90;2.25;;;;;;;;;;4990618;28;20061;-65
2022/05/10 10:58:07;;;;;;;5.68;1.90;;;;;;;;;;5089672;28;20366;-65
2022/05/10 11:00:35;;;;;;;3.28;2.63;;;;;;;;;;5089865;28;20032;-65
2022/05/10 11:03:06;;;;;;;5.82;1.70;;;;;;;;;;5089577;28;20542;-65
2022/05/10 11:05:57;;;;;;;3.60;1.60;;;;;;;;;;5089693;28;20074;-65
2022/05/10 11:08:47;;;;;;;7.18;1.70;;;;;;;;;;5089464;28;20054;-65
2022/05/10 11:11:19;;;;;;;5.55;1.33;;;;;;;;;;5081316;28;20127;-65
2022/05/10 11:13:48;;;;;;;6.70;1.63;;;;;;;;;;5089670;28;20469;-65
2022/05/10 11:16:17;;;;;;;4.93;1.58;;;;;;;;;;5089174;28;20497;-65
2022/05/10 11:18:50;;;;;;;5.05;1.30;;;;;;;;;;5089102;28;20472;-66
2022/05/10 11:21:32;;;;;;;4.68;1.13;;;;;;;;;;5088820;28;20062;-65
2022/05/10 11:24:17;;;;;;;4.85;1.20;;;;;;;;;;5089220;28;20035;-65
2022/05/10 11:27:02;;;;;;;5.50;1.40;;;;;;;;;;5089360;28;20408;-65
2022/05/10 11:29:34;;;;;;;2.30;0.90;;;;;;;;;;5089081;28;20052;-65
2022/05/10 11:32:06;;;;;;;4.78;1.27;;;;;;;;;;5089153;28;20020;-65
2022/05/10 11:34:32;;;;;;;3.93;0.97;;;;;;;;;;5089283;28;20029;-65
2022/05/10 11:37:01;;;;;;;9.45;1.55;;;;;;;;;;5088712;28;20028;-66
2022/05/10 11:39:45;;;;;;;6.10;1.30;;;;;;;;;;5088872;28;20495;-66
2022/05/10 11:42:41;;;;;;;8.27;1.48;;;;;;;;;;5088698;28;20032;-65
2022/05/10 11:45:16;;;;;;;5.95;1.50;;;;;;;;;;5026631;28;20049;-65
2022/05/10 11:47:45;;;;;;;8.85;1.30;;;;;;;;;;5026686;28;20441;-65
2022/05/10 11:50:14;;;;;;;11.80;1.50;;;;;;;;;;5025926;28;20030;-65
2022/05/10 11:52:40;;;;;;;4.63;1.50;;;;;;;;;;5026819;28;20052;-65
2022/05/10 11:55:31;;;;;;;8.27;1.27;;;;;;;;;;5026509;28;20467;-65
2022/05/10 11:57:59;;;;;;;4.85;1.58;;;;;;;;;;5026423;28;20045;-65
2022/05/10 12:00:28;;;;;;;5.82;2.35;;;;;;;;;;5026241;28;20455;-65
2022/05/10 12:02:57;;;;;;;4.25;1.50;;;;;;;;;;5026357;28;20045;-65
2022/05/10 12:05:31;;;;;;;4.05;1.30;;;;;;;;;;5025830;28;20029;-65
2022/05/10 12:07:57;;;;;;;4.30;1.27;;;;;;;;;;5019559;28;20084;-65
2022/05/10 12:10:23;;;;;;;5.72;1.35;;;;;;;;;;5013058;28;20057;-65
2022/05/10 12:12:56;;;;;;;14.77;1.80;;;;;;;;;;5013091;28;20124;-65
2022/05/10 12:21:19;;;;;;;3.55;1.42;;;;;;;;;;5030577;28;20055;-65
2022/05/10 12:24:04;;;;;;;5.22;1.63;;;;;;;;;;5074841;28;20025;-65
2022/05/10 12:26:49;;;;;;;7.50;1.58;;;;;;;;;;5074542;28;20044;-65
2022/05/10 12:29:31;;;;;;;3.58;1.15;;;;;;;;;;5074226;28;20036;-65
2022/05/10 12:31:58;;;;;;;;;;;;;;;;;;5075142;28;20396;-65
2022/05/10 12:34:38;;;;;;;4.57;1.92;;;;;;;;;;5074055;28;19904;-65
2022/05/10 12:37:22;;;;;;;5.25;1.80;;;;;;;;;;5074311;28;20039;-65
2022/05/10 12:40:07;;;;;;;4.25;1.40;;;;;;;;;;5074687;28;20036;-65
2022/05/10 12:42:52;;;;;;;2.05;1.40;;;;;;;;;;5074326;28;20036;-65
2022/05/10 12:45:36;;;;;;;4.68;1.52;;;;;;;;;;5074033;28;20365;-66
2022/05/10 12:48:09;;;;;;;6.72;1.85;;;;;;;;;;5073832;28;20086;-66
2022/05/10 12:50:39;;;;;;;7.00;2.50;;;;;;;;;;5074315;28;20032;-65
2022/05/10 12:53:24;;;;;;;6.90;2.30;;;;;;;;;;5074231;28;20043;-65
2022/05/10 12:55:51;;;;;;;11.80;2.30;;;;;;;;;;5073845;28;20044;-65
2022/05/10 12:58:23;;;;;;;9.32;2.60;;;;;;;;;;5073711;28;20393;-65
2022/05/10 13:00:53;;;;;;;11.60;2.70;;;;;;;;;;5074124;28;20029;-65
2022/05/10 13:03:21;;;;;;;9.00;2.60;;;;;;;;;;5073258;28;20025;-65
2022/05/10 13:05:58;;;;;;;5.05;1.63;;;;;;;;;;5074030;28;20029;-65
2022/05/10 13:08:34;;;;;;;7.78;2.72;;;;;;;;;;5073702;28;20499;-65
2022/05/10 13:11:01;;;;;;;12.40;2.88;;;;;;;;;;5073711;28;20039;-65
2022/05/10 13:13:32;;;;;;;12.32;3.50;;;;;;;;;;5073317;28;20070;-65
2022/05/10 13:15:59;;;;;;;10.98;3.45;;;;;;;;;;5073669;28;20443;-65
2022/05/10 13:18:26;;;;;;;12.88;3.17;;;;;;;;;;5073196;28;20081;-65
2022/05/10 13:20:54;;;;;;;17.25;3.72;;;;;;;;;;5072608;28;20060;-65
2022/05/10 13:23:20;;;;;;;15.30;3.50;;;;;;;;;;5073316;28;20021;-65
2022/05/10 13:25:47;;;;;;;15.50;4.60;;;;;;;;;;5073541;28;20451;-65
2022/05/10 13:28:13;;;;;;;14.45;3.28;;;;;;;;;;5073238;28;20039;-65
2022/05/10 13:30:40;;;;;;;16.42;3.45;;;;;;;;;;5073362;28;20028;-65
2022/05/10 13:33:21;;;;;;;16.30;4.32;;;;;;;;;;5073060;28;20050;-65
2022/05/10 13:35:49;;;;;;;13.27;3.30;;;;;;;;;;5073192;28;20028;-65
2022/05/10 13:38:26;;;;;;;18.40;3.00;;;;;;;;;;5073080;28;20021;-65
2022/05/10 13:40:55;;;;;;;13.63;3.78;;;;;;;;;;5073199;28;20384;-65
2022/05/10 13:43:27;;;;;;;27.40;3.50;;;;;;;;;;5072831;28;20453;-65
2022/05/10 13:46:05;;;;;;;10.35;3.20;;;;;;;;;;5073012;28;20028;-65
2022/05/10 13:48:37;;;;;;;8.98;3.20;;;;;;;;;;5072861;28;20415;-65
2022/05/10 13:51:23;;;;;;;17.23;3.03;;;;;;;;;;5073149;28;20480;-65
2022/05/10 13:54:00;;;;;;;19.17;3.95;;;;;;;;;;5073100;28;20040;-65
2022/05/10 13:56:29;;;;;;;13.93;3.50;;;;;;;;;;5058415;28;20060;-65
2022/05/10 13:58:55;;;;;;;10.93;3.40;;;;;;;;;;5039531;28;20037;-66
2022/05/10 14:01:33;;;;;;;16.70;3.35;;;;;;;;;;5049984;28;20504;-66
2022/05/10 14:04:10;;;;;;;16.00;3.63;;;;;;;;;;5050646;28;20033;-66
2022/05/10 14:06:43;;;;;;;10.13;2.65;;;;;;;;;;5049976;28;20069;-66
2022/05/10 14:09:10;;;;;;;;;;;;;;;;;;5053167;28;20029;-66
2022/05/10 14:11:40;;;;;;;14.25;3.35;;;;;;;;;;5052333;28;19905;-66
2022/05/10 14:14:08;;;;;;;10.00;2.47;;;;;;;;;;5052711;28;20033;-66
2022/05/10 14:16:34;;;;;;;14.35;2.88;;;;;;;;;;5052039;28;20044;-66
2022/05/10 14:19:02;;;;;;;9.70;2.30;;;;;;;;;;5052595;28;20025;-66
2022/05/10 14:21:34;;;;;;;15.70;2.53;;;;;;;;;;5052426;28;20473;-66
2022/05/10 14:24:00;;;;;;;12.63;2.40;;;;;;;;;;5052451;28;20047;-66
2022/05/10 14:26:38;;;;;;;16.73;3.10;;;;;;;;;;5054570;28;20040;-66
2022/05/10 14:29:18;;;;;;;19.58;3.90;;;;;;;;;;5050453;28;20040;-66
2022/05/10 14:31:54;;;;;;;11.75;2.47;;;;;;;;;;5053278;28;20032;-66
2022/05/10 14:34:38;;;;;;;13.07;2.60;;;;;;;;;;5052269;28;20028;-66
2022/05/10 14:37:05;;;;;;;10.65;2.45;;;;;;;;;;5051404;28;20056;-66
2022/05/10 14:39:31;;;;;;;12.38;2.85;;;;;;;;;;5052247;28;20115;-66
2022/05/10 14:41:57;;;;;;;8.75;2.40;;;;;;;;;;5052420;28;20462;-66
2022/05/10 14:44:40;;;;;;;7.00;2.10;;;;;;;;;;5051917;28;20017;-66
2022/05/10 14:47:17;;;;;;;11.50;2.23;;;;;;;;;;5050556;28;20024;-66
2022/05/10 14:49:46;;;;;;;12.13;2.53;;;;;;;;;;5050808;28;20290;-65
2022/05/10 14:52:31;;;;;;;10.25;2.20;;;;;;;;;;5076994;28;20029;-65
2022/05/10 14:54:58;;;;;;;10.05;2.45;;;;;;;;;;5049862;28;20033;-65
2022/05/10 14:57:34;;;;;;;8.00;2.45;;;;;;;;;;5050585;28;20040;-65
2022/05/10 15:00:18;;;;;;;14.05;2.55;;;;;;;;;;5048326;28;20029;-66
2022/05/10 15:02:45;;;;;;;7.78;2.35;;;;;;;;;;5063634;28;20108;-66
2022/05/10 15:05:15;;;;;;;10.52;3.00;;;;;;;;;;5067632;28;20116;-66
2022/05/10 15:07:43;;;;;;;17.17;2.67;;;;;;;;;;5050850;28;20071;-66
2022/05/10 15:10:12;;;;;;;15.57;2.40;;;;;;;;;;5049096;28;20405;-65